createdAt,value
2017-11-30T07:16:24.082Z,37.89
2017-11-30T07:17:33.005Z,37.6
2017-11-30T07:18:41.905Z,37.7
2017-11-30T07:19:50.834Z,37.6
2017-11-30T07:20:59.794Z,37.89
2017-11-30T07:22:09.028Z,38.08
2017-11-30T07:23:18.248Z,38.08
2017-11-30T07:24:27.402Z,38.37
2017-11-30T07:25:36.628Z,38.56
2017-11-30T07:26:45.557Z,38.46
2017-11-30T07:27:54.725Z,38.18
2017-11-30T07:29:03.945Z,38.46
2017-11-30T07:30:13.402Z,38.16
2017-11-30T07:31:22.610Z,38.56
2017-11-30T07:32:31.535Z,38.45
2017-11-30T07:33:41.279Z,38.93
2017-11-30T07:34:50.452Z,38.74
2017-11-30T07:35:59.364Z,38.83
2017-11-30T07:37:08.283Z,39.22
2017-11-30T07:38:17.198Z,39.41
2017-11-30T07:39:25.857Z,39.22
2017-11-30T07:40:35.321Z,39.12
2017-11-30T07:41:43.998Z,38.93
2017-11-30T07:42:53.159Z,39.03
2017-11-30T07:44:02.589Z,38.93
2017-11-30T07:45:11.251Z,39.51
2017-11-30T07:46:20.714Z,39.51
2017-11-30T07:47:30.176Z,39.49
2017-11-30T07:48:39.344Z,39.49
2017-11-30T07:49:48.261Z,39.51
2017-11-30T07:50:57.724Z,39.2
2017-11-30T07:52:06.636Z,39.29
2017-11-30T07:53:15.850Z,39.2
2017-11-30T07:54:25.040Z,39.39
2017-11-30T07:55:33.951Z,39.49
2017-11-30T07:56:42.617Z,39.78
2017-11-30T07:57:51.581Z,39.78
2017-11-30T07:59:00.520Z,39.68
2017-11-30T08:00:09.441Z,39.68
2017-11-30T08:01:18.378Z,39.78
2017-11-30T08:02:27.317Z,39.68
2017-11-30T08:03:36.801Z,39.87
2017-11-30T08:04:45.455Z,39.87
2017-11-30T08:05:54.378Z,39.97
2017-11-30T08:07:03.644Z,39.87
2017-11-30T08:08:12.562Z,39.59
2017-11-30T08:09:21.816Z,39.97
2017-11-30T08:10:30.733Z,39.87
2017-11-30T08:11:39.429Z,39.87
2017-11-30T08:12:48.381Z,39.95
2017-11-30T08:13:57.855Z,40.05
2017-11-30T08:15:07.579Z,40.53
2017-11-30T08:16:16.779Z,40.53
2017-11-30T08:17:26.212Z,40.53
2017-11-30T08:18:35.451Z,40.34
2017-11-30T08:19:44.671Z,40.24
2017-11-30T08:20:53.588Z,40.24
2017-11-30T08:22:02.811Z,40.34
2017-11-30T08:23:12.054Z,40.34
2017-11-30T08:24:21.256Z,40.34
2017-11-30T08:25:30.462Z,40.43
2017-11-30T08:26:39.426Z,40.24
2017-11-30T08:27:48.867Z,40.14
2017-11-30T08:28:57.511Z,40.24
2017-11-30T08:30:06.424Z,40.34
2017-11-30T08:31:15.326Z,40.34
2017-11-30T08:32:24.251Z,40.24
2017-11-30T08:33:33.174Z,40.14
2017-11-30T08:34:42.645Z,40.34
2017-11-30T08:35:52.085Z,40.14
2017-11-30T08:37:01.015Z,40.14
2017-11-30T08:38:10.501Z,40.24
2017-11-30T08:39:19.208Z,40.24
2017-11-30T08:40:28.412Z,40.24
2017-11-30T08:41:37.074Z,40.14
2017-11-30T08:42:45.724Z,40.24
2017-11-30T08:43:54.700Z,40.24
2017-11-30T08:45:04.218Z,40.14
2017-11-30T08:46:13.158Z,40.05
2017-11-30T08:47:22.593Z,40.24
2017-11-30T08:48:31.511Z,40.14
2017-11-30T08:49:40.718Z,40.24
2017-11-30T08:50:49.628Z,40.14
2017-11-30T08:51:58.838Z,40.14
2017-11-30T08:53:08.023Z,40.63
2017-11-30T08:54:17.225Z,40.24
2017-11-30T08:55:26.704Z,40.24
2017-11-30T08:56:35.388Z,40.63
2017-11-30T08:57:44.818Z,40.12
2017-11-30T08:58:54.007Z,40.41
2017-11-30T09:00:03.203Z,40.12
2017-11-30T09:01:12.651Z,40.72
2017-11-30T09:02:21.839Z,40.12
2017-11-30T09:03:30.792Z,40.12
2017-11-30T09:04:40.491Z,40.22
2017-11-30T09:05:49.152Z,40.12
2017-11-30T09:06:58.338Z,40.12
2017-11-30T09:08:07.261Z,40.12
2017-11-30T09:09:16.174Z,40.34
2017-11-30T09:10:25.418Z,40.12
2017-11-30T09:11:34.868Z,40.22
2017-11-30T09:12:43.797Z,40.22
2017-11-30T09:13:53.265Z,40.22
2017-11-30T09:15:02.442Z,40.14
2017-11-30T09:16:11.904Z,40.22
2017-11-30T09:17:21.616Z,40.63
2017-11-30T09:18:30.518Z,40.22
2017-11-30T09:19:39.696Z,40.31
2017-11-30T09:20:49.457Z,40.14
2017-11-30T09:21:58.661Z,40.12
2017-11-30T09:23:08.109Z,40.31
2017-11-30T09:24:17.837Z,40.22
2017-11-30T09:25:27.027Z,40.31
2017-11-30T09:26:35.950Z,40.34
2017-11-30T09:27:45.463Z,40.22
2017-11-30T09:28:54.110Z,40.31
2017-11-30T09:30:03.020Z,40.31
2017-11-30T09:31:12.478Z,40.22
2017-11-30T09:32:21.123Z,40.31
2017-11-30T09:33:30.290Z,40.31
2017-11-30T09:34:39.466Z,40.24
2017-11-30T09:35:48.905Z,40.12
2017-11-30T09:36:57.594Z,40.22
2017-11-30T09:38:07.032Z,40.34
2017-11-30T09:39:16.472Z,40.22
2017-11-30T09:40:25.386Z,40.22
2017-11-30T09:41:34.148Z,40.22
2017-11-30T09:42:44.220Z,40.41
2017-11-30T09:43:53.151Z,40.34
2017-11-30T09:45:01.806Z,40.22
2017-11-30T09:46:11.088Z,40.22
2017-11-30T09:47:20.288Z,40.31
2017-11-30T09:48:29.492Z,40.31
2017-11-30T09:49:38.145Z,40.31
2017-11-30T09:50:47.602Z,40.31
2017-11-30T09:51:56.785Z,40.24
2017-11-30T09:53:06.249Z,40.22
2017-11-30T09:54:15.160Z,40.41
2017-11-30T09:55:24.631Z,40.41
2017-11-30T09:56:34.383Z,40.41
2017-11-30T09:57:43.565Z,40.31
2017-11-30T09:58:52.751Z,40.51
2017-11-30T10:00:01.974Z,40.41
2017-11-30T10:01:10.911Z,40.41
2017-11-30T10:02:20.354Z,40.51
2017-11-30T10:03:29.539Z,40.51
2017-11-30T10:04:38.210Z,40.41
2017-11-30T10:05:47.676Z,40.51
2017-11-30T10:06:56.623Z,40.43
2017-11-30T10:08:05.839Z,40.51
2017-11-30T10:09:15.038Z,40.53
2017-11-30T10:10:24.765Z,39.93
2017-11-30T10:11:34.225Z,40.03
2017-11-30T10:12:43.154Z,39.93
2017-11-30T10:13:52.315Z,39.93
2017-11-30T10:15:01.261Z,39.83
2017-11-30T10:16:10.466Z,39.93
2017-11-30T10:17:19.373Z,39.93
2017-11-30T10:18:28.570Z,39.93
2017-11-30T10:19:37.500Z,39.93
2017-11-30T10:20:46.958Z,40.03
2017-11-30T10:21:56.160Z,40.03
2017-11-30T10:23:05.677Z,40.03
2017-11-30T10:24:14.879Z,39.93
2017-11-30T10:25:24.073Z,39.83
2017-11-30T10:26:33.560Z,39.74
2017-11-30T10:27:43.076Z,40.03
2017-11-30T10:28:51.984Z,39.93
2017-11-30T10:30:00.913Z,39.93
2017-11-30T10:31:10.113Z,39.93
2017-11-30T10:32:19.083Z,40.03
2017-11-30T10:33:28.883Z,39.93
2017-11-30T10:34:37.542Z,39.93
2017-11-30T10:35:47.273Z,39.93
2017-11-30T10:36:56.184Z,39.93
2017-11-30T10:38:04.827Z,40.03
2017-11-30T10:39:13.759Z,39.74
2017-11-30T10:40:22.421Z,39.93
2017-11-30T10:41:31.368Z,39.83
2017-11-30T10:42:40.287Z,39.93
2017-11-30T10:43:49.742Z,39.93
2017-11-30T10:44:58.938Z,39.93
2017-11-30T10:46:08.430Z,39.83
2017-11-30T10:47:17.604Z,39.83
2017-11-30T10:48:26.259Z,39.93
2017-11-30T10:49:35.456Z,39.93
2017-11-30T10:50:44.394Z,39.93
2017-11-30T10:51:53.637Z,39.93
2017-11-30T10:53:02.552Z,39.64
2017-11-30T10:54:11.466Z,39.54
2017-11-30T10:55:20.649Z,39.74
2017-11-30T10:56:29.302Z,39.83
2017-11-30T10:57:38.744Z,39.74
2017-11-30T10:58:48.479Z,39.74
2017-11-30T10:59:57.702Z,39.83
2017-11-30T11:01:07.172Z,39.64
2017-11-30T11:02:16.374Z,39.54
2017-11-30T11:03:25.545Z,39.64
2017-11-30T11:04:34.744Z,39.93
2017-11-30T11:05:43.407Z,39.93
2017-11-30T11:06:52.320Z,39.93
2017-11-30T11:08:01.242Z,39.93
2017-11-30T11:09:10.418Z,39.74
2017-11-30T11:10:20.144Z,39.83
2017-11-30T11:11:29.594Z,39.93
2017-11-30T11:12:39.051Z,39.83
2017-11-30T11:13:47.998Z,39.64
2017-11-30T11:14:56.929Z,39.93
2017-11-30T11:16:05.863Z,39.93
2017-11-30T11:17:15.318Z,39.64
2017-11-30T11:18:24.236Z,39.64
2017-11-30T11:19:33.156Z,39.64
2017-11-30T11:20:42.426Z,39.64
2017-11-30T11:21:51.899Z,39.74
2017-11-30T11:23:00.565Z,39.64
2017-11-30T11:24:09.510Z,39.64
2017-11-30T11:25:18.436Z,39.64
2017-11-30T11:26:27.353Z,39.64
2017-11-30T11:27:36.284Z,39.83
2017-11-30T11:28:45.722Z,39.83
2017-11-30T11:29:55.464Z,39.83
2017-11-30T11:31:04.930Z,39.83
2017-11-30T11:32:13.580Z,39.74
2017-11-30T11:33:22.758Z,39.74
2017-11-30T11:34:31.941Z,39.64
2017-11-30T11:35:40.590Z,39.83
2017-11-30T11:36:50.560Z,39.64
2017-11-30T11:37:59.754Z,39.64
2017-11-30T11:39:08.717Z,39.54
2017-11-30T11:40:18.189Z,39.64
2017-11-30T11:41:27.100Z,39.74
2017-11-30T11:42:35.771Z,39.64
2017-11-30T11:43:44.953Z,39.64
2017-11-30T11:44:54.422Z,39.64
2017-11-30T11:46:03.932Z,39.64
2017-11-30T11:47:13.125Z,39.64
2017-11-30T11:48:22.563Z,39.64
2017-11-30T11:49:31.492Z,39.74
2017-11-30T11:50:40.410Z,39.74
2017-11-30T11:51:49.589Z,39.74
2017-11-30T11:52:58.895Z,39.64
2017-11-30T11:54:08.351Z,39.74
2017-11-30T11:55:17.002Z,39.64
2017-11-30T11:56:25.936Z,39.74
2017-11-30T11:57:35.431Z,39.54
2017-11-30T11:58:44.363Z,39.64
2017-11-30T11:59:53.854Z,39.64
2017-11-30T12:01:02.769Z,39.64
2017-11-30T12:02:11.957Z,39.54
2017-11-30T12:03:20.912Z,39.45
2017-11-30T12:04:29.884Z,39.64
2017-11-30T12:05:39.377Z,39.64
2017-11-30T12:06:48.544Z,39.64
2017-11-30T12:07:58.020Z,39.64
2017-11-30T12:09:07.199Z,39.45
2017-11-30T12:10:16.135Z,39.45
2017-11-30T12:11:25.032Z,39.54
2017-11-30T12:12:34.465Z,39.54
2017-11-30T12:13:44.104Z,39.45
2017-11-30T12:14:53.527Z,39.45
2017-11-30T12:16:02.722Z,39.45
2017-11-30T12:17:12.223Z,39.54
2017-11-30T12:18:22.252Z,39.26
2017-11-30T12:19:31.434Z,39.54
2017-11-30T12:20:40.086Z,39.54
2017-11-30T12:21:49.031Z,39.45
2017-11-30T12:22:58.209Z,39.26
2017-11-30T12:24:07.120Z,39.45
2017-11-30T12:25:16.366Z,39.45
2017-11-30T12:26:25.280Z,39.36
2017-11-30T12:27:34.197Z,39.45
2017-11-30T12:28:43.442Z,39.54
2017-11-30T12:29:52.659Z,39.64
2017-11-30T12:31:01.858Z,39.54
2017-11-30T12:32:10.758Z,39.54
2017-11-30T12:33:19.943Z,39.74
2017-11-30T12:34:28.862Z,39.74
2017-11-30T12:35:37.764Z,39.64
2017-11-30T12:36:46.704Z,39.74
2017-11-30T12:37:56.159Z,39.74
2017-11-30T12:39:04.818Z,39.64
2017-11-30T12:40:13.736Z,39.64
2017-11-30T12:41:22.932Z,39.74
2017-11-30T12:42:31.846Z,39.64
2017-11-30T12:43:40.494Z,39.83
2017-11-30T12:44:49.680Z,39.64
2017-11-30T12:45:59.380Z,39.64
2017-11-30T12:47:08.816Z,39.64
2017-11-30T12:48:17.979Z,39.64
2017-11-30T12:49:27.172Z,39.83
2017-11-30T12:50:36.434Z,39.64
2017-11-30T12:51:45.333Z,39.83
2017-11-30T12:52:54.777Z,39.83
2017-11-30T12:54:03.971Z,39.64
2017-11-30T12:55:13.211Z,39.64
2017-11-30T12:56:22.391Z,39.64
2017-11-30T12:57:31.668Z,39.64
2017-11-30T12:58:40.582Z,39.64
2017-11-30T12:59:49.517Z,39.64
2017-11-30T13:00:58.463Z,39.64
2017-11-30T13:02:07.601Z,39.74
2017-11-30T13:03:16.804Z,39.64
2017-11-30T13:04:26.231Z,39.64
2017-11-30T13:05:35.398Z,39.64
2017-11-30T13:06:44.566Z,39.64
2017-11-30T13:07:53.225Z,39.64
2017-11-30T13:09:02.405Z,39.54
2017-11-30T13:10:11.887Z,39.64
2017-11-30T13:11:21.056Z,39.64
2017-11-30T13:12:29.969Z,39.64
2017-11-30T13:13:38.885Z,39.54
2017-11-30T13:14:48.331Z,39.64
2017-11-30T13:15:57.503Z,39.54
2017-11-30T13:17:06.421Z,39.64
2017-11-30T13:18:15.323Z,39.64
2017-11-30T13:19:24.774Z,39.64
2017-11-30T13:20:34.219Z,39.64
2017-11-30T13:21:43.109Z,39.54
2017-11-30T13:22:52.286Z,39.62
2017-11-30T13:24:01.216Z,39.62
2017-11-30T13:25:10.417Z,39.64
2017-11-30T13:26:19.308Z,39.64
2017-11-30T13:27:28.532Z,39.64
2017-11-30T13:28:37.421Z,39.64
2017-11-30T13:29:46.351Z,39.64
2017-11-30T13:30:54.997Z,39.62
2017-11-30T13:32:03.647Z,39.62
2017-11-30T13:33:12.289Z,39.62
2017-11-30T13:34:21.705Z,39.64
2017-11-30T13:35:30.866Z,39.64
2017-11-30T13:36:40.041Z,39.64
2017-11-30T13:37:48.730Z,39.64
2017-11-30T13:38:58.411Z,39.74
2017-11-30T13:40:07.848Z,39.64
2017-11-30T13:41:17.315Z,39.62
2017-11-30T13:42:26.752Z,39.64
2017-11-30T13:43:35.920Z,39.74
2017-11-30T13:44:44.566Z,39.62
2017-11-30T13:45:54.007Z,39.62
2017-11-30T13:47:02.926Z,39.64
2017-11-30T13:48:12.167Z,39.64
2017-11-30T13:49:21.079Z,39.64
2017-11-30T13:50:30.500Z,39.62
2017-11-30T13:51:39.420Z,39.64
2017-11-30T13:52:48.084Z,39.62
2017-11-30T13:53:57.568Z,39.64
2017-11-30T13:55:06.759Z,39.64
2017-11-30T13:56:15.916Z,39.64
2017-11-30T13:57:24.872Z,39.62
2017-11-30T13:58:34.044Z,39.62
2017-11-30T13:59:43.218Z,39.64
2017-11-30T14:00:52.653Z,39.62
2017-11-30T14:02:01.304Z,39.64
2017-11-30T14:03:10.749Z,39.62
2017-11-30T14:04:19.920Z,39.53
2017-11-30T14:05:28.565Z,39.62
2017-11-30T14:06:37.807Z,39.64
2017-11-30T14:07:46.961Z,39.62
2017-11-30T14:08:55.867Z,39.62
2017-11-30T14:10:04.774Z,39.62
2017-11-30T14:11:13.671Z,39.64
2017-11-30T14:12:22.836Z,39.81
2017-11-30T14:13:32.284Z,39.62
2017-11-30T14:14:41.957Z,39.64
2017-11-30T14:15:51.190Z,39.62
2017-11-30T14:17:00.121Z,39.62
2017-11-30T14:18:09.392Z,39.62
2017-11-30T14:19:18.313Z,39.81
2017-11-30T14:20:26.969Z,39.62
2017-11-30T14:21:36.126Z,39.81
2017-11-30T14:22:45.021Z,39.62
2017-11-30T14:23:53.989Z,39.62
2017-11-30T14:25:03.446Z,39.62
2017-11-30T14:26:12.397Z,39.72
2017-11-30T14:27:21.334Z,39.53
2017-11-30T14:28:30.272Z,39.53
2017-11-30T14:29:39.200Z,39.72
2017-11-30T14:30:48.123Z,39.62
2017-11-30T14:31:57.554Z,39.62
2017-11-30T14:33:06.465Z,39.53
2017-11-30T14:34:16.405Z,39.72
2017-11-30T14:35:25.847Z,39.72
2017-11-30T14:36:34.762Z,39.62
2017-11-30T14:37:43.680Z,39.62
2017-11-30T14:38:52.868Z,39.62
2017-11-30T14:40:01.783Z,39.81
2017-11-30T14:41:10.987Z,39.62
2017-11-30T14:42:19.910Z,39.81
2017-11-30T14:43:29.353Z,39.62
2017-11-30T14:44:38.765Z,39.72
2017-11-30T14:45:47.666Z,39.72
2017-11-30T14:46:56.307Z,39.62
2017-11-30T14:48:05.466Z,39.72
2017-11-30T14:49:14.370Z,39.72
2017-11-30T14:50:23.795Z,39.72
2017-11-30T14:51:32.966Z,39.81
2017-11-30T14:52:42.117Z,39.62
2017-11-30T14:53:51.562Z,39.53
2017-11-30T14:55:01.020Z,39.81
2017-11-30T14:56:09.916Z,39.62
2017-11-30T14:57:18.829Z,39.62
2017-11-30T14:58:28.486Z,39.81
2017-11-30T14:59:37.650Z,39.62
2017-11-30T15:00:47.077Z,39.62
2017-11-30T15:01:56.495Z,39.81
2017-11-30T15:03:05.675Z,39.62
2017-11-30T15:04:14.841Z,39.81
2017-11-30T15:05:23.998Z,39.72
2017-11-30T15:06:33.412Z,39.81
2017-11-30T15:07:42.320Z,39.81
2017-11-30T15:08:51.500Z,39.81
2017-11-30T15:10:00.408Z,39.72
2017-11-30T15:11:09.584Z,39.81
2017-11-30T15:12:18.494Z,39.62
2017-11-30T15:13:27.424Z,39.62
2017-11-30T15:14:36.353Z,39.81
2017-11-30T15:15:45.776Z,39.72
2017-11-30T15:16:54.935Z,39.62
2017-11-30T15:18:03.846Z,39.53
2017-11-30T15:19:13.293Z,39.72
2017-11-30T15:20:22.211Z,39.62
2017-11-30T15:21:31.686Z,39.81
2017-11-30T15:22:40.849Z,39.72
2017-11-30T15:23:50.536Z,39.62
2017-11-30T15:24:59.760Z,39.81
2017-11-30T15:26:08.926Z,39.91
2017-11-30T15:27:18.880Z,39.72
2017-11-30T15:28:27.773Z,39.72
2017-11-30T15:29:36.672Z,39.62
2017-11-30T15:30:45.573Z,39.62
2017-11-30T15:31:54.486Z,39.62
2017-11-30T15:33:03.813Z,39.72
2017-11-30T15:34:13.003Z,39.81
2017-11-30T15:35:22.726Z,39.81
2017-11-30T15:36:32.413Z,39.62
2017-11-30T15:37:41.315Z,39.62
2017-11-30T15:38:50.749Z,39.72
2017-11-30T15:39:59.926Z,39.62
2017-11-30T15:41:08.851Z,39.72
2017-11-30T15:42:18.020Z,39.62
2017-11-30T15:43:27.181Z,39.53
2017-11-30T15:44:36.679Z,39.62
2017-11-30T15:45:45.327Z,39.62
2017-11-30T15:46:53.983Z,39.81
2017-11-30T15:48:03.699Z,39.62
2017-11-30T15:49:12.590Z,39.62
2017-11-30T15:50:21.483Z,39.62
2017-11-30T15:51:30.637Z,39.62
2017-11-30T15:52:39.795Z,39.62
2017-11-30T15:53:49.220Z,39.53
2017-11-30T15:54:58.134Z,39.62
2017-11-30T15:56:07.298Z,39.62
2017-11-30T15:57:16.475Z,39.62
2017-11-30T15:58:25.121Z,39.62
2017-11-30T15:59:34.025Z,39.62
2017-11-30T16:00:43.456Z,39.72
2017-11-30T16:01:52.366Z,39.62
2017-11-30T16:03:01.524Z,39.62
2017-11-30T16:04:10.934Z,39.62
2017-11-30T16:05:19.847Z,39.62
2017-11-30T16:06:28.758Z,39.62
2017-11-30T16:07:37.664Z,39.62
2017-11-30T16:08:47.362Z,39.62
2017-11-30T16:09:56.269Z,39.62
2017-11-30T16:11:05.676Z,39.62
2017-11-30T16:12:14.608Z,39.53
2017-11-30T16:13:24.289Z,39.62
2017-11-30T16:14:33.210Z,39.62
2017-11-30T16:15:42.394Z,39.72
2017-11-30T16:16:51.327Z,39.62
2017-11-30T16:18:00.506Z,39.62
2017-11-30T16:19:09.663Z,39.72
2017-11-30T16:20:18.582Z,39.72
2017-11-30T16:21:28.016Z,39.62
2017-11-30T16:22:36.946Z,39.72
2017-11-30T16:23:45.911Z,39.72
2017-11-30T16:24:54.585Z,39.81
2017-11-30T16:26:04.041Z,39.72
2017-11-30T16:27:12.980Z,39.72
2017-11-30T16:28:21.635Z,39.72
2017-11-30T16:29:31.331Z,39.62
2017-11-30T16:30:40.226Z,39.53
2017-11-30T16:31:48.870Z,39.81
2017-11-30T16:32:58.093Z,39.62
2017-11-30T16:34:07.006Z,39.62
2017-11-30T16:35:15.928Z,39.43
2017-11-30T16:36:24.631Z,39.43
2017-11-30T16:37:34.100Z,39.62
2017-11-30T16:38:43.263Z,39.43
2017-11-30T16:39:52.687Z,39.43
2017-11-30T16:41:01.908Z,39.43
2017-11-30T16:42:10.567Z,39.53
2017-11-30T16:43:19.993Z,39.72
2017-11-30T16:44:28.892Z,39.43
2017-11-30T16:45:37.803Z,39.43
2017-11-30T16:46:47.669Z,39.62
2017-11-30T16:47:56.839Z,39.53
2017-11-30T16:49:06.015Z,39.43
2017-11-30T16:50:14.989Z,39.43
2017-11-30T16:51:24.214Z,39.43
2017-11-30T16:52:33.653Z,39.53
2017-11-30T16:53:42.846Z,39.43
2017-11-30T16:54:51.788Z,39.43
2017-11-30T16:56:00.968Z,39.33
2017-11-30T16:57:09.931Z,39.43
2017-11-30T16:58:19.187Z,39.43
2017-11-30T16:59:27.996Z,39.24
2017-11-30T17:00:36.950Z,39.24
2017-11-30T17:01:46.391Z,39.43
2017-11-30T17:02:55.535Z,39.14
2017-11-30T17:04:04.192Z,39.24
2017-11-30T17:05:13.099Z,39.33
2017-11-30T17:06:22.010Z,39.14
2017-11-30T17:07:31.449Z,39.14
2017-11-30T17:08:40.629Z,39.14
2017-11-30T17:09:49.773Z,39.33
2017-11-30T17:10:59.491Z,39.14
2017-11-30T17:12:08.652Z,39.14
2017-11-30T17:13:17.286Z,39.14
2017-11-30T17:14:26.182Z,39.04
2017-11-30T17:15:35.603Z,39.14
2017-11-30T17:16:44.767Z,39.33
2017-11-30T17:17:53.659Z,39.24
2017-11-30T17:19:02.324Z,39.14
2017-11-30T17:20:12.020Z,39.14
2017-11-30T17:21:21.194Z,39.24
2017-11-30T17:22:30.087Z,39.14
2017-11-30T17:23:39.001Z,39.14
2017-11-30T17:24:48.156Z,39.14
2017-11-30T17:25:57.321Z,39.14
2017-11-30T17:27:06.236Z,39.33
2017-11-30T17:28:15.651Z,39.24
2017-11-30T17:29:24.557Z,39.14
2017-11-30T17:30:33.208Z,39.14
2017-11-30T17:31:42.415Z,39.14
2017-11-30T17:32:51.327Z,39.43
2017-11-30T17:34:00.478Z,39.14
2017-11-30T17:35:09.394Z,39.04
2017-11-30T17:36:18.609Z,39.33
2017-11-30T17:37:27.787Z,39.24
2017-11-30T17:38:36.685Z,39.43
2017-11-30T17:39:45.838Z,39.14
2017-11-30T17:40:54.739Z,39.14
2017-11-30T17:42:03.886Z,39.14
2017-11-30T17:43:13.291Z,39.33
2017-11-30T17:44:22.702Z,39.14
2017-11-30T17:45:32.136Z,39.33
2017-11-30T17:46:41.283Z,39.33
2017-11-30T17:47:50.194Z,39.04
2017-11-30T17:48:59.620Z,39.14
2017-11-30T17:50:08.831Z,39.04
2017-11-30T17:51:17.758Z,39.04
2017-11-30T17:52:26.668Z,39.43
2017-11-30T17:53:36.083Z,39.24
2017-11-30T17:54:44.976Z,39.43
2017-11-30T17:55:54.190Z,39.12
2017-11-30T17:57:03.626Z,39.14
2017-11-30T17:58:12.800Z,39.43
2017-11-30T17:59:21.982Z,39.04
2017-11-30T18:00:30.911Z,39.03
2017-11-30T18:01:40.094Z,39.12
2017-11-30T18:02:48.744Z,39.12
2017-11-30T18:03:57.900Z,39.22
2017-11-30T18:05:07.483Z,39.43
2017-11-30T18:06:16.448Z,39.43
2017-11-30T18:07:25.700Z,39.24
2017-11-30T18:08:35.118Z,39.12
2017-11-30T18:09:44.063Z,39.31
2017-11-30T18:10:52.696Z,39.33
2017-11-30T18:12:01.867Z,39.31
2017-11-30T18:13:11.035Z,39.14
2017-11-30T18:14:20.762Z,39.14
2017-11-30T18:15:29.677Z,39.14
2017-11-30T18:16:38.379Z,39.53
2017-11-30T18:17:47.821Z,39.43
2017-11-30T18:18:57.002Z,39.53
2017-11-30T18:20:05.974Z,39.33
2017-11-30T18:21:15.376Z,39.33
2017-11-30T18:22:24.804Z,39.33
2017-11-30T18:23:34.042Z,39.33
2017-11-30T18:24:42.949Z,39.43
2017-11-30T18:25:51.851Z,39.43
2017-11-30T18:27:01.098Z,39.24
2017-11-30T18:28:10.541Z,39.33
2017-11-30T18:29:19.460Z,39.33
2017-11-30T18:30:28.867Z,39.33
2017-11-30T18:31:38.031Z,39.33
2017-11-30T18:32:47.979Z,39.43
2017-11-30T18:33:57.679Z,39.33
2017-11-30T18:35:06.651Z,39.43
2017-11-30T18:36:15.818Z,39.33
2017-11-30T18:37:25.242Z,39.24
2017-11-30T18:38:34.164Z,39.33
2017-11-30T18:39:43.056Z,39.33
2017-11-30T18:40:51.996Z,39.43
2017-11-30T18:42:00.928Z,39.43
2017-11-30T18:43:10.198Z,38.95
2017-11-30T18:44:18.882Z,39.43
2017-11-30T18:45:27.782Z,39.43
2017-11-30T18:46:36.961Z,39.43
2017-11-30T18:47:45.870Z,39.43
2017-11-30T18:48:54.767Z,39.43
2017-11-30T18:50:03.997Z,39.24
2017-11-30T18:51:12.901Z,39.43
2017-11-30T18:52:21.813Z,39.04
2017-11-30T18:53:30.458Z,39.14
2017-11-30T18:54:39.373Z,39.43
2017-11-30T18:55:48.054Z,39.14
2017-11-30T18:56:56.809Z,39.53
2017-11-30T18:58:05.460Z,39.04
2017-11-30T18:59:14.636Z,39.43
2017-11-30T19:00:23.819Z,39.43
2017-11-30T19:01:32.988Z,39.43
2017-11-30T19:02:41.666Z,39.43
2017-11-30T19:03:50.828Z,39.14
2017-11-30T19:04:59.502Z,39.43
2017-11-30T19:06:08.677Z,39.14
2017-11-30T19:07:17.640Z,39.43
2017-11-30T19:08:27.075Z,39.04
2017-11-30T19:09:36.061Z,39.14
2017-11-30T19:10:44.978Z,38.85
2017-11-30T19:11:53.878Z,39.53
2017-11-30T19:13:02.637Z,39.14
2017-11-30T19:14:11.804Z,39.04
2017-11-30T19:15:21.246Z,39.14
2017-11-30T19:16:30.677Z,39.53
2017-11-30T19:17:39.601Z,39.04
2017-11-30T19:18:48.491Z,39.14
2017-11-30T19:19:57.657Z,38.95
2017-11-30T19:21:06.834Z,38.95
2017-11-30T19:22:16.009Z,39.14
2017-11-30T19:23:24.971Z,39.04
2017-11-30T19:24:33.877Z,39.14
2017-11-30T19:25:43.045Z,39.53
2017-11-30T19:26:52.198Z,38.85
2017-11-30T19:28:00.870Z,38.85
2017-11-30T19:29:10.024Z,38.85
2017-11-30T19:30:18.966Z,39.04
2017-11-30T19:31:27.942Z,39.04
2017-11-30T19:32:36.854Z,39.14
2017-11-30T19:33:46.020Z,39.14
2017-11-30T19:34:54.945Z,38.95
2017-11-30T19:36:04.443Z,39.14
2017-11-30T19:37:13.344Z,38.95
2017-11-30T19:38:22.250Z,39.43
2017-11-30T19:39:32.215Z,39.04
2017-11-30T19:40:41.396Z,38.95
2017-11-30T19:41:51.097Z,39.24
2017-11-30T19:43:00.533Z,39.43
2017-11-30T19:44:09.725Z,39.72
2017-11-30T19:45:18.633Z,40.18
2017-11-30T19:46:27.556Z,40.47
2017-11-30T19:47:36.913Z,40.47
2017-11-30T19:48:46.124Z,40.55
2017-11-30T19:49:55.533Z,40.56
2017-11-30T19:51:04.451Z,40.45
2017-11-30T19:52:13.644Z,40.55
2017-11-30T19:53:22.562Z,40.55
2017-11-30T19:54:31.732Z,40.47
2017-11-30T19:55:41.151Z,40.55
2017-11-30T19:56:50.047Z,40.66
2017-11-30T19:57:58.967Z,40.56
2017-11-30T19:59:08.392Z,40.28
2017-11-30T20:00:17.312Z,40.56
2017-11-30T20:01:26.749Z,40.47
2017-11-30T20:02:35.925Z,40.18
2017-11-30T20:03:45.337Z,40.08
2017-11-30T20:04:54.527Z,40.28
2017-11-30T20:06:03.707Z,40.28
2017-11-30T20:07:12.907Z,40.18
2017-11-30T20:08:21.844Z,40.28
2017-11-30T20:09:30.535Z,40.28
2017-11-30T20:10:39.188Z,40.37
2017-11-30T20:11:48.388Z,40.37
2017-11-30T20:12:57.833Z,40.18
2017-11-30T20:14:06.750Z,39.99
2017-11-30T20:15:15.926Z,39.7
2017-11-30T20:16:25.181Z,39.79
2017-11-30T20:17:35.043Z,39.7
2017-11-30T20:18:44.524Z,39.61
2017-11-30T20:19:54.309Z,39.7
2017-11-30T20:21:03.751Z,39.89
2017-11-30T20:22:12.538Z,39.89
2017-11-30T20:23:21.231Z,39.79
2017-11-30T20:24:30.199Z,39.7
2017-11-30T20:25:39.486Z,39.7
2017-11-30T20:26:48.421Z,39.79
2017-11-30T20:27:57.873Z,39.7
2017-11-30T20:29:06.778Z,39.61
2017-11-30T20:30:15.920Z,39.61
2017-11-30T20:31:25.073Z,39.61
2017-11-30T20:32:34.267Z,39.7
2017-11-30T20:33:43.422Z,39.61
2017-11-30T20:34:52.313Z,39.61
2017-11-30T20:36:01.485Z,39.61
2017-11-30T20:37:10.664Z,39.61
2017-11-30T20:38:19.661Z,39.61
2017-11-30T20:39:28.838Z,39.61
2017-11-30T20:40:38.004Z,39.61
2017-11-30T20:41:47.170Z,39.61
2017-11-30T20:42:55.837Z,39.61
2017-11-30T20:44:05.035Z,39.61
2017-11-30T20:45:13.980Z,39.61
2017-11-30T20:46:23.119Z,39.7
2017-11-30T20:47:32.269Z,39.81
2017-11-30T20:48:41.421Z,39.7
2017-11-30T20:49:50.326Z,39.7
2017-11-30T20:50:58.987Z,39.61
2017-11-30T20:52:08.140Z,39.7
2017-11-30T20:53:17.088Z,39.62
2017-11-30T20:54:26.780Z,39.61
2017-11-30T20:55:35.445Z,39.61
2017-11-30T20:56:44.622Z,39.79
2017-11-30T20:57:53.266Z,39.7
2017-11-30T20:59:02.437Z,39.7
2017-11-30T21:00:11.878Z,39.61
2017-11-30T21:01:20.568Z,39.7
2017-11-30T21:02:29.205Z,39.41
2017-11-30T21:03:38.114Z,39.7
2017-11-30T21:04:47.554Z,39.61
2017-11-30T21:05:56.467Z,39.7
2017-11-30T21:07:05.885Z,39.79
2017-11-30T21:08:15.061Z,39.62
2017-11-30T21:09:24.481Z,39.43
2017-11-30T21:10:33.656Z,39.43
2017-11-30T21:11:42.847Z,39.51
2017-11-30T21:12:51.745Z,39.62
2017-11-30T21:14:00.910Z,39.43
2017-11-30T21:15:10.163Z,39.43
2017-11-30T21:16:19.861Z,39.61
2017-11-30T21:17:28.808Z,39.61
2017-11-30T21:18:37.460Z,39.62
2017-11-30T21:19:46.900Z,39.51
2017-11-30T21:20:56.098Z,39.72
2017-11-30T21:22:05.771Z,39.53
2017-11-30T21:23:14.751Z,39.51
2017-11-30T21:24:23.685Z,39.81
2017-11-30T21:25:32.620Z,39.62
2017-11-30T21:26:41.524Z,39.41
2017-11-30T21:27:50.173Z,39.51
2017-11-30T21:28:59.070Z,39.79
2017-11-30T21:30:07.749Z,39.62
2017-11-30T21:31:16.664Z,39.7
2017-11-30T21:32:25.308Z,39.7
2017-11-30T21:33:34.451Z,39.7
2017-11-30T21:34:43.349Z,39.7
2017-11-30T21:35:52.542Z,39.72
2017-11-30T21:37:01.187Z,39.7
2017-11-30T21:38:10.122Z,39.79
2017-11-30T21:39:19.314Z,39.62
2017-11-30T21:40:28.487Z,39.61
2017-11-30T21:41:37.677Z,39.62
2017-11-30T21:42:46.905Z,39.61
2017-11-30T21:43:56.085Z,39.61
2017-11-30T21:45:05.258Z,39.62
2017-11-30T21:46:14.442Z,39.62
2017-11-30T21:47:23.363Z,39.62
2017-11-30T21:48:32.558Z,39.72
2017-11-30T21:49:42.235Z,39.61
2017-11-30T21:50:51.665Z,39.62
2017-11-30T21:52:00.872Z,39.61
2017-11-30T21:53:09.805Z,39.61
2017-11-30T21:54:18.771Z,39.62
2017-11-30T21:55:27.457Z,39.7
2017-11-30T21:56:36.649Z,39.79
2017-11-30T21:57:45.290Z,39.61
2017-11-30T21:58:53.970Z,39.61
2017-11-30T22:00:03.132Z,39.89
2017-11-30T22:01:13.060Z,39.79
2017-11-30T22:02:22.020Z,39.79
2017-11-30T22:03:31.213Z,39.61
2017-11-30T22:04:40.407Z,39.61
2017-11-30T22:05:49.567Z,39.89
2017-11-30T22:06:58.485Z,39.79